sensor_id;sensor_type;location;lat;lon;timestamp;temperature;humidity
13806;DHT22;6974;53.606;9.872;2023-09-19T00:00:59;18.70;99.90
13806;DHT22;6974;53.606;9.872;2023-09-19T00:03:25;18.70;99.90
13806;DHT22;6974;53.606;9.872;2023-09-19T00:05:58;18.70;99.90
13806;DHT22;6974;53.606;9.872;2023-09-19T00:08:25;18.70;99.90
13806;DHT22;6974;53.606;9.872;2023-09-19T00:10:54;18.70;99.90
13806;DHT22;6974;53.606;9.872;2023-09-19T00:13:22;18.70;99.90
13806;DHT22;6974;53.606;9.872;2023-09-19T00:15:50;18.70;99.90
13806;DHT22;6974;53.606;9.872;2023-09-19T00:18:17;18.70;99.90
13806;DHT22;6974;53.606;9.872;2023-09-19T00:20:46;18.70;99.90
13806;DHT22;6974;53.606;9.872;2023-09-19T00:23:16;18.70;99.90
13806;DHT22;6974;53.606;9.872;2023-09-19T00:25:44;18.70;99.90
13806;DHT22;6974;53.606;9.872;2023-09-19T00:28:11;18.70;99.90
13806;DHT22;6974;53.606;9.872;2023-09-19T00:30:42;18.60;99.90
13806;DHT22;6974;53.606;9.872;2023-09-19T00:33:09;18.60;99.90
13806;DHT22;6974;53.606;9.872;2023-09-19T00:35:37;18.60;99.90
13806;DHT22;6974;53.606;9.872;2023-09-19T00:38:04;18.60;99.90
13806;DHT22;6974;53.606;9.872;2023-09-19T00:40:33;18.60;99.90
13806;DHT22;6974;53.606;9.872;2023-09-19T00:43:00;18.60;99.90
13806;DHT22;6974;53.606;9.872;2023-09-19T00:45:28;18.60;99.90
13806;DHT22;6974;53.606;9.872;2023-09-19T00:47:55;18.50;99.90
13806;DHT22;6974;53.606;9.872;2023-09-19T00:50:24;18.50;99.90
13806;DHT22;6974;53.606;9.872;2023-09-19T00:52:54;18.50;99.90
13806;DHT22;6974;53.606;9.872;2023-09-19T00:55:24;18.50;99.90
13806;DHT22;6974;53.606;9.872;2023-09-19T00:57:52;18.50;99.90
13806;DHT22;6974;53.606;9.872;2023-09-19T01:00:22;18.40;99.90
13806;DHT22;6974;53.606;9.872;2023-09-19T01:02:49;18.40;99.90
13806;DHT22;6974;53.606;9.872;2023-09-19T01:05:16;18.40;99.90
13806;DHT22;6974;53.606;9.872;2023-09-19T01:07:44;18.40;99.90
13806;DHT22;6974;53.606;9.872;2023-09-19T01:10:12;18.40;99.90
13806;DHT22;6974;53.606;9.872;2023-09-19T01:12:51;18.40;99.90
13806;DHT22;6974;53.606;9.872;2023-09-19T01:15:28;18.40;99.90
13806;DHT22;6974;53.606;9.872;2023-09-19T01:18:04;18.30;99.90
13806;DHT22;6974;53.606;9.872;2023-09-19T01:20:40;18.30;99.90
13806;DHT22;6974;53.606;9.872;2023-09-19T01:23:19;18.30;99.90
13806;DHT22;6974;53.606;9.872;2023-09-19T01:26:06;18.30;99.90
13806;DHT22;6974;53.606;9.872;2023-09-19T01:28:53;18.30;99.90
13806;DHT22;6974;53.606;9.872;2023-09-19T01:31:24;18.30;99.90
13806;DHT22;6974;53.606;9.872;2023-09-19T01:33:59;18.30;99.90
13806;DHT22;6974;53.606;9.872;2023-09-19T01:36:28;18.30;99.90
13806;DHT22;6974;53.606;9.872;2023-09-19T01:38:56;18.30;99.90
13806;DHT22;6974;53.606;9.872;2023-09-19T01:41:29;18.30;99.90
13806;DHT22;6974;53.606;9.872;2023-09-19T01:44:00;18.30;99.90
13806;DHT22;6974;53.606;9.872;2023-09-19T01:46:34;18.30;99.90
13806;DHT22;6974;53.606;9.872;2023-09-19T01:49:15;18.20;99.90
13806;DHT22;6974;53.606;9.872;2023-09-19T01:51:53;18.20;99.90
13806;DHT22;6974;53.606;9.872;2023-09-19T01:54:26;18.20;99.90
13806;DHT22;6974;53.606;9.872;2023-09-19T01:57:09;18.20;99.90
13806;DHT22;6974;53.606;9.872;2023-09-19T01:59:45;18.20;99.90
13806;DHT22;6974;53.606;9.872;2023-09-19T02:02:17;18.20;99.90
13806;DHT22;6974;53.606;9.872;2023-09-19T02:04:44;18.10;99.90
13806;DHT22;6974;53.606;9.872;2023-09-19T02:07:11;18.10;99.90
13806;DHT22;6974;53.606;9.872;2023-09-19T02:09:41;18.10;99.90
13806;DHT22;6974;53.606;9.872;2023-09-19T02:12:09;18.00;99.90
13806;DHT22;6974;53.606;9.872;2023-09-19T02:14:36;18.00;99.90
13806;DHT22;6974;53.606;9.872;2023-09-19T02:17:03;18.00;99.90
13806;DHT22;6974;53.606;9.872;2023-09-19T02:19:32;18.00;99.90
13806;DHT22;6974;53.606;9.872;2023-09-19T02:21:59;18.00;99.90
13806;DHT22;6974;53.606;9.872;2023-09-19T02:24:27;17.90;99.90
13806;DHT22;6974;53.606;9.872;2023-09-19T02:26:54;17.90;99.90
13806;DHT22;6974;53.606;9.872;2023-09-19T02:29:21;17.90;99.90
13806;DHT22;6974;53.606;9.872;2023-09-19T02:31:48;17.90;99.90
13806;DHT22;6974;53.606;9.872;2023-09-19T02:34:15;17.90;99.90
13806;DHT22;6974;53.606;9.872;2023-09-19T02:36:44;17.90;99.90
13806;DHT22;6974;53.606;9.872;2023-09-19T02:39:12;17.90;99.90
13806;DHT22;6974;53.606;9.872;2023-09-19T02:41:39;17.90;99.90
13806;DHT22;6974;53.606;9.872;2023-09-19T02:44:07;17.90;99.90
13806;DHT22;6974;53.606;9.872;2023-09-19T02:46:34;17.90;99.90
13806;DHT22;6974;53.606;9.872;2023-09-19T02:49:02;17.80;99.90
13806;DHT22;6974;53.606;9.872;2023-09-19T02:51:30;17.90;99.90
13806;DHT22;6974;53.606;9.872;2023-09-19T02:54:00;17.80;99.90
13806;DHT22;6974;53.606;9.872;2023-09-19T02:56:28;17.80;99.90
13806;DHT22;6974;53.606;9.872;2023-09-19T02:58:56;17.80;99.90
13806;DHT22;6974;53.606;9.872;2023-09-19T03:01:23;17.80;99.90
13806;DHT22;6974;53.606;9.872;2023-09-19T03:03:50;17.80;99.90
13806;DHT22;6974;53.606;9.872;2023-09-19T03:06:17;17.80;99.90
13806;DHT22;6974;53.606;9.872;2023-09-19T03:08:45;17.80;99.90
13806;DHT22;6974;53.606;9.872;2023-09-19T03:11:16;17.80;99.90
13806;DHT22;6974;53.606;9.872;2023-09-19T03:13:51;17.80;99.90
13806;DHT22;6974;53.606;9.872;2023-09-19T03:16:18;17.80;99.90
13806;DHT22;6974;53.606;9.872;2023-09-19T03:18:47;17.80;99.90
13806;DHT22;6974;53.606;9.872;2023-09-19T03:21:14;17.80;99.90
13806;DHT22;6974;53.606;9.872;2023-09-19T03:23:41;17.70;99.90
13806;DHT22;6974;53.606;9.872;2023-09-19T03:26:11;17.70;99.90
13806;DHT22;6974;53.606;9.872;2023-09-19T03:28:39;17.80;99.90
13806;DHT22;6974;53.606;9.872;2023-09-19T03:31:08;17.80;99.90
13806;DHT22;6974;53.606;9.872;2023-09-19T03:33:35;17.80;99.90
13806;DHT22;6974;53.606;9.872;2023-09-19T03:36:03;17.80;99.90
13806;DHT22;6974;53.606;9.872;2023-09-19T03:38:31;17.80;99.90
13806;DHT22;6974;53.606;9.872;2023-09-19T03:40:59;17.80;99.90
13806;DHT22;6974;53.606;9.872;2023-09-19T03:43:26;17.70;99.90
13806;DHT22;6974;53.606;9.872;2023-09-19T03:45:54;17.70;99.90
13806;DHT22;6974;53.606;9.872;2023-09-19T03:48:21;17.70;99.90
13806;DHT22;6974;53.606;9.872;2023-09-19T03:50:48;17.60;99.90
13806;DHT22;6974;53.606;9.872;2023-09-19T03:53:15;17.70;99.90
13806;DHT22;6974;53.606;9.872;2023-09-19T03:55:44;17.60;99.90
13806;DHT22;6974;53.606;9.872;2023-09-19T03:58:11;17.70;99.90
13806;DHT22;6974;53.606;9.872;2023-09-19T04:00:38;17.60;99.90
13806;DHT22;6974;53.606;9.872;2023-09-19T04:03:06;17.70;99.90
13806;DHT22;6974;53.606;9.872;2023-09-19T04:05:33;17.60;99.90
13806;DHT22;6974;53.606;9.872;2023-09-19T04:08:00;17.60;99.90
13806;DHT22;6974;53.606;9.872;2023-09-19T04:10:27;17.60;99.90
13806;DHT22;6974;53.606;9.872;2023-09-19T04:12:54;17.60;99.90
13806;DHT22;6974;53.606;9.872;2023-09-19T04:15:21;17.50;99.90
13806;DHT22;6974;53.606;9.872;2023-09-19T04:17:49;17.50;99.90
13806;DHT22;6974;53.606;9.872;2023-09-19T04:20:17;17.40;99.90
13806;DHT22;6974;53.606;9.872;2023-09-19T04:22:45;17.40;99.90
13806;DHT22;6974;53.606;9.872;2023-09-19T04:25:13;17.30;99.90
13806;DHT22;6974;53.606;9.872;2023-09-19T04:27:40;17.30;99.90
13806;DHT22;6974;53.606;9.872;2023-09-19T04:30:08;17.20;99.90
13806;DHT22;6974;53.606;9.872;2023-09-19T04:32:37;17.20;99.90
13806;DHT22;6974;53.606;9.872;2023-09-19T04:35:06;17.20;99.90
13806;DHT22;6974;53.606;9.872;2023-09-19T04:37:37;17.10;99.90
13806;DHT22;6974;53.606;9.872;2023-09-19T04:40:06;17.10;99.90
13806;DHT22;6974;53.606;9.872;2023-09-19T04:42:38;17.00;99.90
13806;DHT22;6974;53.606;9.872;2023-09-19T04:45:06;17.00;99.90
13806;DHT22;6974;53.606;9.872;2023-09-19T04:47:35;17.00;99.90
13806;DHT22;6974;53.606;9.872;2023-09-19T04:50:07;16.90;99.90
13806;DHT22;6974;53.606;9.872;2023-09-19T04:52:39;17.00;99.90
13806;DHT22;6974;53.606;9.872;2023-09-19T04:57:36;16.90;99.90
13806;DHT22;6974;53.606;9.872;2023-09-19T05:00:05;16.90;99.90
13806;DHT22;6974;53.606;9.872;2023-09-19T05:02:38;16.90;99.90
13806;DHT22;6974;53.606;9.872;2023-09-19T05:05:06;16.90;99.90
13806;DHT22;6974;53.606;9.872;2023-09-19T05:07:33;16.90;99.90
13806;DHT22;6974;53.606;9.872;2023-09-19T05:10:02;16.90;99.90
13806;DHT22;6974;53.606;9.872;2023-09-19T05:12:31;16.90;99.90
13806;DHT22;6974;53.606;9.872;2023-09-19T05:14:58;16.80;99.90
13806;DHT22;6974;53.606;9.872;2023-09-19T05:17:24;16.90;99.90
13806;DHT22;6974;53.606;9.872;2023-09-19T05:19:51;16.80;99.90
13806;DHT22;6974;53.606;9.872;2023-09-19T05:22:18;16.80;99.90
13806;DHT22;6974;53.606;9.872;2023-09-19T05:24:45;16.80;99.90
13806;DHT22;6974;53.606;9.872;2023-09-19T05:27:14;16.80;99.90
13806;DHT22;6974;53.606;9.872;2023-09-19T05:29:42;16.80;99.90
13806;DHT22;6974;53.606;9.872;2023-09-19T05:32:10;16.70;99.90
13806;DHT22;6974;53.606;9.872;2023-09-19T05:34:37;16.80;99.90
13806;DHT22;6974;53.606;9.872;2023-09-19T05:37:04;16.70;99.90
13806;DHT22;6974;53.606;9.872;2023-09-19T05:39:32;16.70;99.90
13806;DHT22;6974;53.606;9.872;2023-09-19T05:41:59;16.70;99.90
13806;DHT22;6974;53.606;9.872;2023-09-19T05:44:28;16.60;99.90
13806;DHT22;6974;53.606;9.872;2023-09-19T05:46:54;16.70;99.90
13806;DHT22;6974;53.606;9.872;2023-09-19T05:49:23;16.60;99.90
13806;DHT22;6974;53.606;9.872;2023-09-19T05:51:52;16.60;99.90
13806;DHT22;6974;53.606;9.872;2023-09-19T05:54:20;16.60;99.90
13806;DHT22;6974;53.606;9.872;2023-09-19T05:56:47;16.60;99.90
13806;DHT22;6974;53.606;9.872;2023-09-19T05:59:18;16.60;99.90
13806;DHT22;6974;53.606;9.872;2023-09-19T06:01:46;16.70;99.90
13806;DHT22;6974;53.606;9.872;2023-09-19T06:04:13;16.70;99.90
13806;DHT22;6974;53.606;9.872;2023-09-19T06:06:40;16.70;99.90
13806;DHT22;6974;53.606;9.872;2023-09-19T06:09:08;16.70;99.90
13806;DHT22;6974;53.606;9.872;2023-09-19T06:11:35;16.80;99.90
13806;DHT22;6974;53.606;9.872;2023-09-19T06:14:02;16.80;99.90
13806;DHT22;6974;53.606;9.872;2023-09-19T06:16:29;16.90;99.90
13806;DHT22;6974;53.606;9.872;2023-09-19T06:18:59;16.80;99.90
13806;DHT22;6974;53.606;9.872;2023-09-19T06:21:27;16.80;99.90
13806;DHT22;6974;53.606;9.872;2023-09-19T06:23:54;16.80;99.90
13806;DHT22;6974;53.606;9.872;2023-09-19T06:26:21;16.80;99.90
13806;DHT22;6974;53.606;9.872;2023-09-19T06:28:48;16.80;99.90
13806;DHT22;6974;53.606;9.872;2023-09-19T06:31:15;16.90;99.90
13806;DHT22;6974;53.606;9.872;2023-09-19T06:33:42;16.90;99.90
13806;DHT22;6974;53.606;9.872;2023-09-19T06:36:10;16.90;99.90
13806;DHT22;6974;53.606;9.872;2023-09-19T06:38:37;17.00;99.90
13806;DHT22;6974;53.606;9.872;2023-09-19T06:41:05;17.00;99.90
13806;DHT22;6974;53.606;9.872;2023-09-19T06:43:32;17.00;99.90
13806;DHT22;6974;53.606;9.872;2023-09-19T06:46:00;17.00;99.90
13806;DHT22;6974;53.606;9.872;2023-09-19T06:48:27;17.00;99.90
13806;DHT22;6974;53.606;9.872;2023-09-19T06:50:55;17.10;99.90
13806;DHT22;6974;53.606;9.872;2023-09-19T06:53:25;17.10;99.90
13806;DHT22;6974;53.606;9.872;2023-09-19T06:55:52;17.10;99.90
13806;DHT22;6974;53.606;9.872;2023-09-19T06:58:19;17.10;99.90
13806;DHT22;6974;53.606;9.872;2023-09-19T07:00:46;17.20;99.90
13806;DHT22;6974;53.606;9.872;2023-09-19T07:03:15;17.10;99.90
13806;DHT22;6974;53.606;9.872;2023-09-19T07:05:48;17.10;99.90
13806;DHT22;6974;53.606;9.872;2023-09-19T07:08:15;17.10;99.90
13806;DHT22;6974;53.606;9.872;2023-09-19T07:10:43;17.20;99.90
13806;DHT22;6974;53.606;9.872;2023-09-19T07:13:15;17.20;99.90
13806;DHT22;6974;53.606;9.872;2023-09-19T07:15:43;17.20;99.90
13806;DHT22;6974;53.606;9.872;2023-09-19T07:18:12;17.20;99.90
13806;DHT22;6974;53.606;9.872;2023-09-19T07:20:40;17.20;99.90
13806;DHT22;6974;53.606;9.872;2023-09-19T07:23:14;17.20;99.90
13806;DHT22;6974;53.606;9.872;2023-09-19T07:25:43;17.30;99.90
13806;DHT22;6974;53.606;9.872;2023-09-19T07:28:10;17.20;99.90
13806;DHT22;6974;53.606;9.872;2023-09-19T07:30:37;17.30;99.90
13806;DHT22;6974;53.606;9.872;2023-09-19T07:33:04;17.30;99.90
13806;DHT22;6974;53.606;9.872;2023-09-19T07:35:31;17.30;99.90
13806;DHT22;6974;53.606;9.872;2023-09-19T07:37:58;17.30;99.90
13806;DHT22;6974;53.606;9.872;2023-09-19T07:40:27;17.30;99.90
13806;DHT22;6974;53.606;9.872;2023-09-19T07:42:56;17.40;99.90
13806;DHT22;6974;53.606;9.872;2023-09-19T07:45:22;17.30;99.90
13806;DHT22;6974;53.606;9.872;2023-09-19T07:47:51;17.30;99.90
13806;DHT22;6974;53.606;9.872;2023-09-19T07:50:20;17.20;99.90
13806;DHT22;6974;53.606;9.872;2023-09-19T07:52:47;17.20;99.90
13806;DHT22;6974;53.606;9.872;2023-09-19T07:55:16;17.10;99.90
13806;DHT22;6974;53.606;9.872;2023-09-19T07:57:45;17.10;99.90
13806;DHT22;6974;53.606;9.872;2023-09-19T08:00:14;17.00;99.90
13806;DHT22;6974;53.606;9.872;2023-09-19T08:02:42;17.10;99.90
13806;DHT22;6974;53.606;9.872;2023-09-19T08:05:10;17.00;99.90
13806;DHT22;6974;53.606;9.872;2023-09-19T08:07:37;17.00;99.90
13806;DHT22;6974;53.606;9.872;2023-09-19T08:10:05;17.00;99.90
13806;DHT22;6974;53.606;9.872;2023-09-19T08:12:38;17.00;99.90
13806;DHT22;6974;53.606;9.872;2023-09-19T08:15:13;17.10;99.90
13806;DHT22;6974;53.606;9.872;2023-09-19T08:17:40;17.10;99.90
13806;DHT22;6974;53.606;9.872;2023-09-19T08:20:08;17.20;99.90
13806;DHT22;6974;53.606;9.872;2023-09-19T08:22:43;17.20;99.90
13806;DHT22;6974;53.606;9.872;2023-09-19T08:25:11;17.20;99.90
13806;DHT22;6974;53.606;9.872;2023-09-19T08:27:38;17.30;99.90
13806;DHT22;6974;53.606;9.872;2023-09-19T08:30:06;17.30;99.90
13806;DHT22;6974;53.606;9.872;2023-09-19T08:32:34;17.30;99.90
13806;DHT22;6974;53.606;9.872;2023-09-19T08:35:01;17.30;99.90
13806;DHT22;6974;53.606;9.872;2023-09-19T08:37:30;17.30;99.90
13806;DHT22;6974;53.606;9.872;2023-09-19T08:39:56;17.30;99.90
13806;DHT22;6974;53.606;9.872;2023-09-19T08:42:23;17.40;99.90
13806;DHT22;6974;53.606;9.872;2023-09-19T08:44:50;17.40;99.90
13806;DHT22;6974;53.606;9.872;2023-09-19T08:47:25;17.50;99.90
13806;DHT22;6974;53.606;9.872;2023-09-19T08:50:01;17.50;99.90
13806;DHT22;6974;53.606;9.872;2023-09-19T08:52:32;17.50;99.90
13806;DHT22;6974;53.606;9.872;2023-09-19T08:55:02;17.50;99.90
13806;DHT22;6974;53.606;9.872;2023-09-19T08:57:33;17.50;99.90
13806;DHT22;6974;53.606;9.872;2023-09-19T09:00:02;17.50;99.90
13806;DHT22;6974;53.606;9.872;2023-09-19T09:02:31;17.60;99.90
13806;DHT22;6974;53.606;9.872;2023-09-19T09:05:01;17.50;99.90
13806;DHT22;6974;53.606;9.872;2023-09-19T09:07:28;17.50;99.90
13806;DHT22;6974;53.606;9.872;2023-09-19T09:09:55;17.60;99.90
13806;DHT22;6974;53.606;9.872;2023-09-19T09:12:23;17.60;99.90
13806;DHT22;6974;53.606;9.872;2023-09-19T09:14:51;17.70;99.90
13806;DHT22;6974;53.606;9.872;2023-09-19T09:17:18;17.70;99.90
13806;DHT22;6974;53.606;9.872;2023-09-19T09:19:46;17.70;99.90
13806;DHT22;6974;53.606;9.872;2023-09-19T09:27:23;17.80;99.90
13806;DHT22;6974;53.606;9.872;2023-09-19T09:29:52;17.80;99.90
13806;DHT22;6974;53.606;9.872;2023-09-19T09:32:21;17.90;99.90
13806;DHT22;6974;53.606;9.872;2023-09-19T09:34:50;17.90;99.90
13806;DHT22;6974;53.606;9.872;2023-09-19T09:37:18;18.00;99.90
13806;DHT22;6974;53.606;9.872;2023-09-19T09:39:50;18.10;99.90
13806;DHT22;6974;53.606;9.872;2023-09-19T09:42:41;18.20;99.90
13806;DHT22;6974;53.606;9.872;2023-09-19T09:45:16;18.30;99.90
13806;DHT22;6974;53.606;9.872;2023-09-19T09:47:44;18.40;99.90
13806;DHT22;6974;53.606;9.872;2023-09-19T09:50:30;18.50;99.90
13806;DHT22;6974;53.606;9.872;2023-09-19T09:53:20;18.60;99.90
13806;DHT22;6974;53.606;9.872;2023-09-19T09:56:03;18.70;99.90
13806;DHT22;6974;53.606;9.872;2023-09-19T09:58:37;18.80;99.90
13806;DHT22;6974;53.606;9.872;2023-09-19T10:01:06;18.90;99.90
13806;DHT22;6974;53.606;9.872;2023-09-19T10:03:37;19.00;99.90
13806;DHT22;6974;53.606;9.872;2023-09-19T10:06:11;19.00;99.90
13806;DHT22;6974;53.606;9.872;2023-09-19T10:09:00;19.10;99.90
13806;DHT22;6974;53.606;9.872;2023-09-19T10:11:40;19.10;99.90
13806;DHT22;6974;53.606;9.872;2023-09-19T10:14:11;19.10;99.90
13806;DHT22;6974;53.606;9.872;2023-09-19T10:16:41;19.20;99.90
13806;DHT22;6974;53.606;9.872;2023-09-19T10:19:16;19.20;99.90
13806;DHT22;6974;53.606;9.872;2023-09-19T10:21:44;19.20;99.90
13806;DHT22;6974;53.606;9.872;2023-09-19T10:24:13;19.20;99.90
13806;DHT22;6974;53.606;9.872;2023-09-19T10:26:44;19.30;99.90
13806;DHT22;6974;53.606;9.872;2023-09-19T10:29:13;19.30;99.90
13806;DHT22;6974;53.606;9.872;2023-09-19T10:31:42;19.40;99.90
13806;DHT22;6974;53.606;9.872;2023-09-19T10:34:14;19.50;99.90
13806;DHT22;6974;53.606;9.872;2023-09-19T10:36:45;19.60;99.90
13806;DHT22;6974;53.606;9.872;2023-09-19T10:39:15;19.50;99.90
13806;DHT22;6974;53.606;9.872;2023-09-19T10:41:55;19.40;99.90
13806;DHT22;6974;53.606;9.872;2023-09-19T10:44:26;19.40;99.90
13806;DHT22;6974;53.606;9.872;2023-09-19T10:46:54;19.30;99.90
13806;DHT22;6974;53.606;9.872;2023-09-19T10:49:22;19.30;99.90
13806;DHT22;6974;53.606;9.872;2023-09-19T10:51:53;19.20;99.90
13806;DHT22;6974;53.606;9.872;2023-09-19T10:54:23;19.20;99.90
13806;DHT22;6974;53.606;9.872;2023-09-19T10:56:53;19.20;99.90
13806;DHT22;6974;53.606;9.872;2023-09-19T10:59:25;19.30;99.90
13806;DHT22;6974;53.606;9.872;2023-09-19T11:02:00;19.20;99.90
13806;DHT22;6974;53.606;9.872;2023-09-19T11:04:42;19.20;99.90
13806;DHT22;6974;53.606;9.872;2023-09-19T11:07:14;19.30;99.90
13806;DHT22;6974;53.606;9.872;2023-09-19T11:09:45;19.30;99.90
13806;DHT22;6974;53.606;9.872;2023-09-19T11:12:12;19.30;99.90
13806;DHT22;6974;53.606;9.872;2023-09-19T11:14:43;19.40;99.90
13806;DHT22;6974;53.606;9.872;2023-09-19T11:17:41;19.30;99.90
13806;DHT22;6974;53.606;9.872;2023-09-19T11:20:24;19.30;99.90
13806;DHT22;6974;53.606;9.872;2023-09-19T11:23:20;19.30;99.90
13806;DHT22;6974;53.606;9.872;2023-09-19T11:25:56;19.30;99.90
13806;DHT22;6974;53.606;9.872;2023-09-19T11:28:33;19.30;99.90
13806;DHT22;6974;53.606;9.872;2023-09-19T11:40:12;19.50;99.90
13806;DHT22;6974;53.606;9.872;2023-09-19T11:42:43;19.40;99.90
13806;DHT22;6974;53.606;9.872;2023-09-19T11:48:23;19.50;99.90
13806;DHT22;6974;53.606;9.872;2023-09-19T11:50:51;19.50;99.90
13806;DHT22;6974;53.606;9.872;2023-09-19T11:53:20;19.50;99.90
13806;DHT22;6974;53.606;9.872;2023-09-19T11:55:49;19.50;99.90
13806;DHT22;6974;53.606;9.872;2023-09-19T11:58:18;19.50;99.90
13806;DHT22;6974;53.606;9.872;2023-09-19T12:00:46;19.60;99.90
13806;DHT22;6974;53.606;9.872;2023-09-19T12:03:21;19.60;99.90
13806;DHT22;6974;53.606;9.872;2023-09-19T12:05:49;19.60;99.90
13806;DHT22;6974;53.606;9.872;2023-09-19T12:08:18;19.60;99.90
13806;DHT22;6974;53.606;9.872;2023-09-19T12:10:49;19.70;99.90
13806;DHT22;6974;53.606;9.872;2023-09-19T12:13:17;19.60;99.90
13806;DHT22;6974;53.606;9.872;2023-09-19T12:15:45;19.60;99.90
13806;DHT22;6974;53.606;9.872;2023-09-19T12:18:26;19.60;99.90
13806;DHT22;6974;53.606;9.872;2023-09-19T12:20:53;19.60;99.90
13806;DHT22;6974;53.606;9.872;2023-09-19T12:23:21;19.60;99.90
13806;DHT22;6974;53.606;9.872;2023-09-19T12:25:49;19.70;99.90
13806;DHT22;6974;53.606;9.872;2023-09-19T12:28:19;19.70;99.90
13806;DHT22;6974;53.606;9.872;2023-09-19T12:30:47;19.70;99.90
13806;DHT22;6974;53.606;9.872;2023-09-19T12:33:16;19.80;99.90
13806;DHT22;6974;53.606;9.872;2023-09-19T12:35:45;19.80;99.90
13806;DHT22;6974;53.606;9.872;2023-09-19T12:38:24;19.80;99.90
13806;DHT22;6974;53.606;9.872;2023-09-19T12:40:55;19.80;99.90
13806;DHT22;6974;53.606;9.872;2023-09-19T12:43:25;19.90;99.90
13806;DHT22;6974;53.606;9.872;2023-09-19T12:45:53;19.90;99.90
13806;DHT22;6974;53.606;9.872;2023-09-19T12:48:23;19.90;99.90
13806;DHT22;6974;53.606;9.872;2023-09-19T12:51:02;19.90;99.90
13806;DHT22;6974;53.606;9.872;2023-09-19T12:53:32;19.90;99.90
13806;DHT22;6974;53.606;9.872;2023-09-19T12:56:03;19.90;99.90
13806;DHT22;6974;53.606;9.872;2023-09-19T12:58:32;19.90;99.90
13806;DHT22;6974;53.606;9.872;2023-09-19T13:01:00;19.80;99.90
13806;DHT22;6974;53.606;9.872;2023-09-19T13:03:29;19.90;99.90
13806;DHT22;6974;53.606;9.872;2023-09-19T13:05:59;19.90;99.90
13806;DHT22;6974;53.606;9.872;2023-09-19T13:08:29;20.00;99.90
13806;DHT22;6974;53.606;9.872;2023-09-19T13:11:10;19.90;99.90
13806;DHT22;6974;53.606;9.872;2023-09-19T13:13:42;19.90;99.90
13806;DHT22;6974;53.606;9.872;2023-09-19T13:16:13;20.00;99.90
13806;DHT22;6974;53.606;9.872;2023-09-19T13:18:46;20.00;99.90
13806;DHT22;6974;53.606;9.872;2023-09-19T13:21:17;20.00;99.90
13806;DHT22;6974;53.606;9.872;2023-09-19T13:23:51;20.10;99.90
13806;DHT22;6974;53.606;9.872;2023-09-19T13:26:19;20.10;99.90
13806;DHT22;6974;53.606;9.872;2023-09-19T13:28:48;20.00;99.90
13806;DHT22;6974;53.606;9.872;2023-09-19T13:31:15;20.20;99.90
13806;DHT22;6974;53.606;9.872;2023-09-19T13:33:45;20.20;99.90
13806;DHT22;6974;53.606;9.872;2023-09-19T13:36:13;20.30;99.90
13806;DHT22;6974;53.606;9.872;2023-09-19T13:38:41;20.40;99.90
13806;DHT22;6974;53.606;9.872;2023-09-19T13:41:10;20.50;99.90
13806;DHT22;6974;53.606;9.872;2023-09-19T13:43:39;20.50;99.90
13806;DHT22;6974;53.606;9.872;2023-09-19T13:46:06;20.60;99.90
13806;DHT22;6974;53.606;9.872;2023-09-19T13:48:38;20.60;99.90
13806;DHT22;6974;53.606;9.872;2023-09-19T13:51:05;20.70;99.90
13806;DHT22;6974;53.606;9.872;2023-09-19T13:53:31;20.60;99.90
13806;DHT22;6974;53.606;9.872;2023-09-19T13:55:59;20.70;99.90
13806;DHT22;6974;53.606;9.872;2023-09-19T13:58:27;20.70;99.90
13806;DHT22;6974;53.606;9.872;2023-09-19T14:00:58;20.70;99.90
13806;DHT22;6974;53.606;9.872;2023-09-19T14:03:39;20.70;99.90
13806;DHT22;6974;53.606;9.872;2023-09-19T14:06:06;20.70;99.90
13806;DHT22;6974;53.606;9.872;2023-09-19T14:08:34;20.60;99.90
13806;DHT22;6974;53.606;9.872;2023-09-19T14:11:05;20.70;99.90
13806;DHT22;6974;53.606;9.872;2023-09-19T14:13:32;20.60;99.90
13806;DHT22;6974;53.606;9.872;2023-09-19T14:16:04;20.50;99.90
13806;DHT22;6974;53.606;9.872;2023-09-19T14:18:32;20.50;99.90
13806;DHT22;6974;53.606;9.872;2023-09-19T14:21:03;20.50;99.90
13806;DHT22;6974;53.606;9.872;2023-09-19T14:23:34;20.60;99.90
13806;DHT22;6974;53.606;9.872;2023-09-19T14:26:02;20.50;99.90
13806;DHT22;6974;53.606;9.872;2023-09-19T14:28:30;20.50;99.90
13806;DHT22;6974;53.606;9.872;2023-09-19T14:31:05;20.40;99.90
13806;DHT22;6974;53.606;9.872;2023-09-19T14:33:33;20.40;99.90
13806;DHT22;6974;53.606;9.872;2023-09-19T14:36:03;20.50;99.90
13806;DHT22;6974;53.606;9.872;2023-09-19T14:38:31;20.40;99.90
13806;DHT22;6974;53.606;9.872;2023-09-19T14:41:00;20.40;99.90
13806;DHT22;6974;53.606;9.872;2023-09-19T14:43:27;20.40;99.90
13806;DHT22;6974;53.606;9.872;2023-09-19T14:45:55;20.30;99.90
13806;DHT22;6974;53.606;9.872;2023-09-19T14:48:26;20.20;99.90
13806;DHT22;6974;53.606;9.872;2023-09-19T14:50:57;20.20;99.90
13806;DHT22;6974;53.606;9.872;2023-09-19T14:53:28;20.10;99.90
13806;DHT22;6974;53.606;9.872;2023-09-19T14:56:00;20.20;99.90
13806;DHT22;6974;53.606;9.872;2023-09-19T14:58:28;20.10;99.90
13806;DHT22;6974;53.606;9.872;2023-09-19T15:01:03;20.10;99.90
13806;DHT22;6974;53.606;9.872;2023-09-19T15:03:32;20.20;99.90
13806;DHT22;6974;53.606;9.872;2023-09-19T15:06:00;20.10;99.90
13806;DHT22;6974;53.606;9.872;2023-09-19T15:08:27;20.10;99.90
13806;DHT22;6974;53.606;9.872;2023-09-19T15:10:54;20.10;99.90
13806;DHT22;6974;53.606;9.872;2023-09-19T15:13:24;20.10;99.90
13806;DHT22;6974;53.606;9.872;2023-09-19T15:15:58;20.10;99.90
13806;DHT22;6974;53.606;9.872;2023-09-19T15:18:26;20.10;99.90
13806;DHT22;6974;53.606;9.872;2023-09-19T15:20:55;20.00;99.90
13806;DHT22;6974;53.606;9.872;2023-09-19T15:23:22;19.90;99.90
13806;DHT22;6974;53.606;9.872;2023-09-19T15:25:49;20.00;99.90
13806;DHT22;6974;53.606;9.872;2023-09-19T15:28:16;20.00;99.90
13806;DHT22;6974;53.606;9.872;2023-09-19T15:30:44;20.00;99.90
13806;DHT22;6974;53.606;9.872;2023-09-19T15:33:11;20.10;99.90
13806;DHT22;6974;53.606;9.872;2023-09-19T15:35:37;20.00;99.90
13806;DHT22;6974;53.606;9.872;2023-09-19T15:38:05;19.90;99.90
13806;DHT22;6974;53.606;9.872;2023-09-19T15:40:33;20.00;99.90
13806;DHT22;6974;53.606;9.872;2023-09-19T15:43:00;20.00;99.90
13806;DHT22;6974;53.606;9.872;2023-09-19T15:45:27;20.00;99.90
13806;DHT22;6974;53.606;9.872;2023-09-19T15:47:53;20.00;99.90
13806;DHT22;6974;53.606;9.872;2023-09-19T15:50:21;19.90;99.90
13806;DHT22;6974;53.606;9.872;2023-09-19T15:52:53;19.80;99.90
13806;DHT22;6974;53.606;9.872;2023-09-19T15:55:21;19.80;99.90
13806;DHT22;6974;53.606;9.872;2023-09-19T15:57:48;19.80;99.90
13806;DHT22;6974;53.606;9.872;2023-09-19T16:00:16;19.90;99.90
13806;DHT22;6974;53.606;9.872;2023-09-19T16:02:45;19.80;99.90
13806;DHT22;6974;53.606;9.872;2023-09-19T16:05:12;19.80;99.90
13806;DHT22;6974;53.606;9.872;2023-09-19T16:07:40;19.80;99.90
13806;DHT22;6974;53.606;9.872;2023-09-19T16:10:07;19.70;99.90
13806;DHT22;6974;53.606;9.872;2023-09-19T16:12:36;19.70;99.90
13806;DHT22;6974;53.606;9.872;2023-09-19T16:15:03;19.70;99.90
13806;DHT22;6974;53.606;9.872;2023-09-19T16:17:30;19.60;99.90
13806;DHT22;6974;53.606;9.872;2023-09-19T16:19:57;19.60;99.90